createdAt,value
2019-03-06T00:03:37.349Z,100.00
2019-03-06T00:06:25.084Z,100.00
2019-03-06T00:08:53.785Z,100.00
2019-03-06T00:11:22.464Z,100.00
2019-03-06T00:13:51.158Z,100.00
2019-03-06T00:16:39.193Z,100.00
2019-03-06T00:19:07.608Z,100.00
2019-03-06T00:21:36.011Z,100.00
2019-03-06T00:24:04.488Z,100.00
2019-03-06T00:26:33.221Z,100.00
2019-03-06T00:29:01.912Z,100.00
2019-03-06T00:31:30.322Z,100.00
2019-03-06T00:33:59.073Z,100.00
2019-03-06T00:39:16.821Z,100.00
2019-03-06T00:41:47.258Z,100.00
2019-03-06T00:44:15.672Z,100.00
2019-03-06T00:46:44.148Z,100.00
2019-03-06T00:49:12.800Z,100.00
2019-03-06T00:52:00.540Z,100.00
2019-03-06T00:54:29.211Z,100.00
2019-03-06T00:56:57.620Z,100.00
2019-03-06T00:59:26.015Z,100.00
2019-03-06T01:01:54.755Z,100.00
2019-03-06T01:04:23.443Z,100.00
2019-03-06T01:06:52.128Z,100.00
2019-03-06T01:09:20.818Z,100.00
2019-03-06T01:11:49.212Z,100.00
2019-03-06T01:14:17.625Z,100.00
2019-03-06T01:16:46.359Z,100.00
2019-03-06T01:19:14.996Z,100.00
2019-03-06T01:21:43.410Z,100.00
2019-03-06T01:24:12.052Z,100.00
2019-03-06T01:26:40.464Z,100.00
2019-03-06T01:29:09.279Z,100.00
2019-03-06T01:31:37.965Z,100.00
2019-03-06T01:47:15.853Z,100.00
2019-03-06T01:49:44.248Z,100.00
2019-03-06T01:52:12.659Z,100.00
2019-03-06T01:54:41.293Z,100.00
2019-03-06T01:57:09.706Z,100.00
2019-03-06T01:59:57.434Z,100.00
2019-03-06T02:02:25.851Z,100.00
2019-03-06T02:04:54.576Z,100.00
2019-03-06T02:07:25.010Z,100.00
2019-03-06T02:09:53.605Z,100.00
2019-03-06T02:12:22.174Z,100.00
2019-03-06T02:14:50.642Z,100.00
2019-03-06T02:17:19.338Z,100.00
2019-03-06T02:19:47.910Z,100.00
2019-03-06T02:22:16.317Z,100.00
2019-03-06T02:24:44.713Z,100.00
2019-03-06T02:27:13.111Z,100.00
2019-03-06T02:29:41.843Z,100.00
2019-03-06T02:32:10.475Z,100.00
2019-03-06T02:34:39.224Z,100.00
2019-03-06T02:37:07.621Z,100.00
2019-03-06T02:39:36.044Z,100.00
2019-03-06T02:42:04.433Z,100.00
2019-03-06T02:44:33.144Z,100.00
2019-03-06T02:47:02.046Z,100.00
2019-03-06T02:49:30.448Z,100.00
2019-03-06T02:51:59.196Z,100.00
2019-03-06T02:54:27.591Z,100.00
2019-03-06T02:56:55.989Z,100.00
2019-03-06T03:09:45.896Z,100.00
2019-03-06T03:12:14.594Z,100.00
2019-03-06T03:14:42.989Z,100.00
2019-03-06T03:17:11.466Z,100.00
2019-03-06T03:19:39.863Z,100.00
2019-03-06T03:22:08.253Z,100.00
2019-03-06T03:24:36.662Z,100.00
2019-03-06T03:27:05.382Z,100.00
2019-03-06T03:29:33.785Z,100.00
2019-03-06T03:32:02.186Z,100.00
2019-03-06T03:34:30.808Z,100.00
2019-03-06T03:36:59.164Z,100.00
2019-03-06T03:39:27.894Z,100.00
2019-03-06T03:41:56.580Z,100.00
2019-03-06T03:44:24.970Z,100.00
2019-03-06T03:47:12.724Z,100.00
2019-03-06T03:49:41.113Z,100.00
2019-03-06T03:52:09.525Z,100.00
2019-03-06T03:54:38.264Z,100.00
2019-03-06T03:57:06.628Z,100.00
2019-03-06T03:59:35.355Z,100.00
2019-03-06T04:02:04.084Z,100.00
2019-03-06T04:04:32.775Z,100.00
2019-03-06T04:07:01.252Z,100.00
2019-03-06T04:09:29.938Z,100.00
2019-03-06T04:12:00.083Z,100.00
2019-03-06T04:14:28.748Z,100.00
2019-03-06T04:16:57.140Z,100.00
2019-03-06T04:19:25.554Z,100.00
2019-03-06T04:21:53.943Z,100.00
2019-03-06T04:24:22.669Z,100.00
2019-03-06T04:26:51.453Z,100.00
2019-03-06T04:29:19.865Z,100.00
2019-03-06T04:31:48.262Z,100.00
2019-03-06T04:34:17.003Z,100.00
2019-03-06T04:36:45.413Z,100.00
2019-03-06T04:39:13.810Z,100.00
2019-03-06T04:41:42.225Z,100.00
2019-03-06T04:44:10.627Z,100.00
2019-03-06T04:46:39.022Z,100.00
2019-03-06T04:49:07.674Z,100.00
2019-03-06T04:51:36.247Z,100.00
2019-03-06T04:54:04.655Z,100.00
2019-03-06T04:56:33.051Z,100.00
2019-03-06T04:59:01.710Z,100.00
2019-03-06T05:01:30.115Z,100.00
2019-03-06T05:04:00.232Z,100.00
2019-03-06T05:06:28.996Z,100.00
2019-03-06T05:08:57.680Z,100.00
2019-03-06T05:11:26.074Z,100.00
2019-03-06T05:13:54.744Z,100.00
2019-03-06T05:19:12.612Z,100.00
2019-03-06T05:21:41.283Z,100.00
2019-03-06T05:24:09.978Z,100.00
2019-03-06T05:26:40.110Z,100.00
2019-03-06T05:29:08.778Z,100.00
2019-03-06T05:31:37.501Z,100.00
2019-03-06T05:34:06.149Z,100.00
2019-03-06T05:37:14.767Z,100.00
2019-03-06T05:39:43.174Z,100.00
2019-03-06T05:42:11.572Z,100.00
2019-03-06T05:44:42.069Z,100.00
2019-03-06T05:47:10.467Z,100.00
2019-03-06T05:49:39.226Z,100.00
2019-03-06T05:52:07.911Z,100.00
2019-03-06T05:54:36.610Z,100.00
2019-03-06T05:57:05.281Z,100.00
2019-03-06T05:59:33.670Z,100.00
2019-03-06T06:02:02.084Z,100.00
2019-03-06T06:04:30.741Z,100.00
2019-03-06T06:06:59.134Z,100.00
2019-03-06T06:09:27.616Z,100.00
2019-03-06T06:11:56.272Z,100.00
2019-03-06T06:14:24.676Z,100.00
2019-03-06T06:16:53.069Z,100.00
2019-03-06T06:19:21.483Z,100.00
2019-03-06T06:24:39.460Z,100.00
2019-03-06T06:27:08.097Z,100.00
2019-03-06T06:29:36.501Z,100.00
2019-03-06T06:32:04.933Z,100.00
2019-03-06T06:34:33.339Z,100.00
2019-03-06T06:37:01.764Z,100.00
2019-03-06T06:39:30.176Z,100.00
2019-03-06T06:41:58.848Z,100.00
2019-03-06T06:44:28.985Z,100.00
2019-03-06T06:46:57.638Z,100.00
2019-03-06T06:49:26.337Z,100.00
2019-03-06T06:52:34.889Z,100.00
2019-03-06T06:55:43.249Z,100.00
2019-03-06T06:58:51.863Z,100.00
2019-03-06T07:02:02.141Z,100.00
2019-03-06T07:05:28.240Z,100.00
2019-03-06T07:08:16.015Z,100.00
2019-03-06T07:11:03.527Z,100.00
2019-03-06T07:13:51.298Z,100.00
2019-03-06T07:16:38.807Z,100.00
2019-03-06T07:19:26.644Z,100.00
2019-03-06T07:27:42.911Z,100.00
2019-03-06T07:30:51.454Z,100.00
2019-03-06T07:33:38.976Z,100.00
2019-03-06T07:36:26.884Z,100.00
2019-03-06T07:44:30.038Z,100.00
2019-03-06T07:47:15.063Z,100.00
2019-03-06T07:50:23.390Z,100.00
2019-03-06T07:53:31.700Z,100.00
2019-03-06T07:58:59.873Z,100.00
2019-03-06T08:02:08.438Z,100.00
2019-03-06T08:04:37.004Z,100.00
2019-03-06T08:07:24.525Z,100.00
2019-03-06T08:09:52.931Z,100.00
2019-03-06T08:12:40.444Z,100.00
2019-03-06T08:15:48.767Z,100.00
2019-03-06T08:18:36.269Z,100.00
2019-03-06T08:21:24.038Z,100.00
2019-03-06T08:24:11.541Z,100.00
2019-03-06T08:26:40.404Z,100.00
2019-03-06T08:29:08.811Z,100.00
2019-03-06T08:34:26.633Z,100.00
2019-03-06T08:36:55.049Z,100.00
2019-03-06T08:39:42.777Z,100.00
2019-03-06T08:42:11.533Z,100.00
2019-03-06T08:44:41.967Z,100.00
2019-03-06T08:47:29.735Z,100.00
2019-03-06T08:50:17.552Z,100.00
2019-03-06T08:55:40.560Z,100.00
2019-03-06T09:01:44.037Z,100.00
2019-03-06T09:07:26.343Z,100.00
2019-03-06T09:10:13.932Z,100.00
2019-03-06T09:13:01.490Z,98.52
2019-03-06T09:15:48.945Z,100.00
2019-03-06T09:18:36.689Z,95.61
2019-03-06T09:24:23.215Z,91.19
2019-03-06T09:27:10.959Z,92.49
2019-03-06T09:29:58.793Z,90.59
2019-03-06T09:32:46.541Z,92.44
2019-03-06T09:35:34.059Z,91.34
2019-03-06T09:38:21.554Z,89.45
2019-03-06T09:41:09.079Z,90.13
2019-03-06T09:43:56.819Z,85.99
2019-03-06T09:46:44.340Z,85.82
2019-03-06T09:49:31.846Z,85.36
2019-03-06T09:52:19.367Z,84.65
2019-03-06T09:57:56.283Z,83.31
2019-03-06T10:03:51.867Z,83.18
2019-03-06T10:06:39.358Z,80.81
2019-03-06T10:09:47.672Z,81.75
2019-03-06T10:12:35.178Z,79.40
2019-03-06T10:18:17.559Z,78.52
2019-03-06T10:20:46.037Z,77.54
2019-03-06T10:23:14.425Z,76.98
2019-03-06T10:25:42.856Z,76.22
2019-03-06T10:28:11.207Z,77.31
2019-03-06T10:33:47.669Z,78.67
2019-03-06T10:36:16.489Z,78.46
2019-03-06T10:38:44.877Z,78.14
2019-03-06T10:41:13.365Z,77.33
2019-03-06T10:43:48.880Z,78.58
2019-03-06T10:46:12.587Z,75.56
2019-03-06T10:48:41.275Z,76.48
2019-03-06T10:51:11.803Z,74.18
2019-03-06T10:53:41.547Z,72.25
2019-03-06T10:56:10.368Z,71.55
2019-03-06T10:58:38.909Z,70.86
2019-03-06T11:01:07.639Z,69.69
2019-03-06T11:06:51.152Z,68.50
2019-03-06T11:09:19.603Z,67.95
2019-03-06T11:11:48.303Z,67.80
2019-03-06T11:14:17.078Z,64.89
2019-03-06T11:16:45.889Z,66.73
2019-03-06T11:19:56.118Z,63.76
2019-03-06T11:22:24.827Z,64.76
2019-03-06T11:24:53.282Z,62.83
2019-03-06T11:27:22.099Z,65.41
2019-03-06T11:29:50.774Z,62.44
2019-03-06T11:32:19.278Z,64.67
2019-03-06T11:34:48.077Z,67.10
2019-03-06T11:40:51.717Z,63.81
2019-03-06T11:43:20.113Z,61.67
2019-03-06T11:45:48.948Z,60.33
2019-03-06T11:48:17.422Z,61.69
2019-03-06T11:50:47.842Z,58.18
2019-03-06T11:53:35.585Z,56.26
2019-03-06T11:56:23.618Z,56.44
2019-03-06T11:59:13.801Z,55.64
2019-03-06T12:02:23.342Z,55.64
2019-03-06T12:05:11.157Z,55.88
2019-03-06T12:07:39.867Z,55.88
2019-03-06T12:10:48.172Z,55.02
2019-03-06T12:13:57.335Z,56.26
2019-03-06T12:16:27.126Z,56.33
2019-03-06T12:19:35.416Z,55.09
2019-03-06T12:22:23.166Z,54.39
2019-03-06T12:24:51.861Z,54.39
2019-03-06T12:27:20.546Z,51.66
2019-03-06T12:30:01.551Z,49.76
2019-03-06T12:32:29.930Z,49.76
2019-03-06T12:34:58.591Z,50.11
2019-03-06T12:37:26.998Z,51.08
2019-03-06T12:39:55.654Z,49.25
2019-03-06T12:42:45.139Z,48.83
2019-03-06T12:45:53.444Z,49.02
2019-03-06T12:48:22.128Z,49.02
2019-03-06T12:50:55.108Z,47.06
2019-03-06T12:53:20.943Z,48.65
2019-03-06T12:56:08.682Z,45.94
2019-03-06T12:58:37.353Z,45.41
2019-03-06T13:01:45.669Z,45.41
2019-03-06T13:04:14.061Z,46.23
2019-03-06T13:07:02.091Z,46.25
2019-03-06T13:09:50.251Z,45.87
2019-03-06T13:12:19.018Z,44.99
2019-03-06T13:15:27.544Z,44.80
2019-03-06T13:18:17.225Z,43.45
2019-03-06T13:20:45.621Z,43.45
2019-03-06T13:23:33.365Z,43.77
2019-03-06T13:26:10.057Z,43.77
2019-03-06T13:28:31.855Z,43.82
2019-03-06T13:31:00.524Z,42.62
2019-03-06T13:34:07.432Z,43.90
2019-03-06T13:36:36.281Z,43.90
2019-03-06T13:39:24.325Z,43.67
2019-03-06T13:41:54.746Z,43.67
2019-03-06T13:44:23.434Z,42.59
2019-03-06T13:47:11.575Z,40.76
2019-03-06T13:49:39.967Z,40.76
2019-03-06T13:52:08.639Z,40.07
2019-03-06T13:54:56.692Z,39.23
2019-03-06T13:57:45.186Z,39.24
2019-03-06T14:00:53.925Z,39.24
2019-03-06T14:03:22.644Z,39.78
2019-03-06T14:05:51.327Z,41.46
2019-03-06T14:08:21.450Z,40.18
2019-03-06T14:10:49.840Z,40.12
2019-03-06T14:13:18.295Z,40.56
2019-03-06T14:15:53.611Z,40.12
2019-03-06T14:18:17.533Z,40.64
2019-03-06T14:21:05.281Z,40.48
2019-03-06T14:26:41.749Z,40.65
2019-03-06T14:29:10.542Z,40.50
2019-03-06T14:31:39.003Z,40.71
2019-03-06T14:34:07.724Z,41.87
2019-03-06T14:36:36.411Z,41.87
2019-03-06T14:39:45.046Z,41.72
2019-03-06T14:42:13.821Z,42.63
2019-03-06T14:45:01.862Z,42.84
2019-03-06T14:47:49.827Z,44.70
2019-03-06T14:50:18.234Z,44.70
2019-03-06T14:52:46.965Z,46.07
2019-03-06T14:55:55.408Z,43.96
2019-03-06T14:58:23.786Z,44.75
2019-03-06T15:01:11.591Z,44.69
2019-03-06T15:03:40.270Z,44.69
2019-03-06T15:06:08.767Z,44.16
2019-03-06T15:08:37.481Z,43.38
2019-03-06T15:11:05.858Z,41.90
2019-03-06T15:13:34.318Z,42.04
2019-03-06T15:16:02.715Z,42.88
2019-03-06T15:18:31.095Z,41.90
2019-03-06T15:20:59.474Z,42.25
2019-03-06T15:23:28.218Z,43.58
2019-03-06T15:26:04.214Z,42.16
2019-03-06T15:28:32.624Z,43.03
2019-03-06T15:31:01.063Z,44.93
2019-03-06T15:33:29.449Z,43.50
2019-03-06T15:35:57.851Z,43.98
2019-03-06T15:38:26.502Z,44.90
2019-03-06T15:40:54.881Z,45.20
2019-03-06T15:43:43.127Z,44.76
2019-03-06T15:46:11.582Z,44.76
2019-03-06T15:48:40.279Z,46.63
2019-03-06T15:51:28.016Z,46.45
2019-03-06T15:53:56.407Z,46.49
2019-03-06T15:56:44.144Z,48.27
2019-03-06T15:59:32.197Z,48.27
2019-03-06T16:02:20.218Z,49.97
2019-03-06T16:04:48.607Z,48.61
2019-03-06T16:07:38.379Z,48.26
2019-03-06T16:10:26.919Z,49.58
2019-03-06T16:13:15.055Z,51.35
2019-03-06T16:15:43.849Z,51.35
2019-03-06T16:18:12.396Z,52.99
2019-03-06T16:21:20.764Z,52.06
2019-03-06T16:24:09.852Z,52.11
2019-03-06T16:26:58.266Z,53.31
2019-03-06T16:29:26.947Z,53.31
2019-03-06T16:31:55.358Z,55.24
2019-03-06T16:34:24.108Z,55.24
2019-03-06T16:37:11.998Z,54.54
2019-03-06T16:39:40.730Z,54.54
2019-03-06T16:42:28.769Z,54.46
2019-03-06T16:45:37.132Z,56.37
2019-03-06T16:51:00.463Z,57.36
2019-03-06T16:53:48.272Z,59.77
2019-03-06T16:56:16.680Z,56.42
2019-03-06T16:58:47.180Z,56.68
2019-03-06T17:01:15.639Z,56.23
2019-03-06T17:03:44.107Z,61.01
2019-03-06T17:06:12.492Z,58.12
2019-03-06T17:08:41.140Z,56.69
2019-03-06T17:11:49.462Z,56.99
2019-03-06T17:14:37.254Z,57.51
2019-03-06T17:17:05.867Z,57.51
2019-03-06T17:19:34.550Z,56.78
2019-03-06T17:22:03.240Z,56.67
2019-03-06T17:24:31.639Z,56.70
2019-03-06T17:27:00.342Z,57.12
2019-03-06T17:29:29.016Z,57.11
2019-03-06T17:31:57.597Z,58.75
2019-03-06T17:34:26.244Z,58.88
2019-03-06T17:36:54.973Z,58.63
2019-03-06T17:42:18.045Z,59.05
2019-03-06T17:44:46.832Z,60.80
2019-03-06T17:47:15.532Z,62.96
2019-03-06T17:49:44.216Z,61.24
2019-03-06T17:52:12.849Z,61.99
2019-03-06T17:54:41.576Z,60.79
2019-03-06T17:57:11.709Z,61.52
2019-03-06T17:59:40.394Z,59.83
2019-03-06T18:02:28.449Z,61.20
2019-03-06T18:04:56.906Z,60.24
2019-03-06T18:07:27.347Z,60.98
2019-03-06T18:09:56.123Z,61.06
2019-03-06T18:12:24.577Z,59.66
2019-03-06T18:14:53.283Z,59.83
2019-03-06T18:17:21.693Z,62.31
2019-03-06T18:20:30.282Z,59.58
2019-03-06T18:22:59.077Z,56.94
2019-03-06T18:25:27.764Z,58.08
2019-03-06T18:27:56.467Z,58.67
2019-03-06T18:30:26.589Z,58.79
2019-03-06T18:33:14.455Z,58.11
2019-03-06T18:35:54.892Z,58.65
2019-03-06T18:38:23.279Z,58.41
2019-03-06T18:40:51.930Z,59.31
2019-03-06T18:43:20.424Z,60.64
2019-03-06T18:45:48.870Z,61.46
2019-03-06T18:48:17.254Z,59.55
2019-03-06T18:50:45.896Z,60.31
2019-03-06T18:53:14.285Z,59.72
2019-03-06T18:55:44.460Z,59.49
2019-03-06T18:58:13.143Z,60.16
2019-03-06T19:00:43.355Z,59.63
2019-03-06T19:03:12.043Z,60.28
2019-03-06T19:05:40.687Z,58.73
2019-03-06T19:08:09.330Z,61.96
2019-03-06T19:10:37.905Z,61.60
2019-03-06T19:13:06.440Z,61.42
2019-03-06T19:15:35.293Z,59.88
2019-03-06T19:20:58.426Z,61.49
2019-03-06T19:23:26.817Z,63.01
2019-03-06T19:25:55.280Z,62.90
2019-03-06T19:28:23.940Z,63.74
2019-03-06T19:30:52.641Z,65.29
2019-03-06T19:33:21.036Z,67.73
2019-03-06T19:35:51.153Z,68.20
2019-03-06T19:38:19.777Z,65.00
2019-03-06T19:40:48.495Z,63.52
2019-03-06T19:43:16.959Z,65.10
2019-03-06T19:45:45.668Z,63.57
2019-03-06T19:48:14.348Z,65.50
2019-03-06T19:50:42.983Z,65.33
2019-03-06T19:53:11.363Z,67.02
2019-03-06T19:55:40.000Z,68.08
2019-03-06T19:58:48.320Z,66.52
2019-03-06T20:01:17.118Z,65.94
2019-03-06T20:04:43.554Z,65.93
2019-03-06T20:07:12.244Z,64.02
2019-03-06T20:10:00.356Z,65.37
2019-03-06T20:12:28.799Z,65.51
2019-03-06T20:14:58.909Z,63.83
2019-03-06T20:17:27.335Z,66.05
2019-03-06T20:19:55.729Z,66.17
2019-03-06T20:22:24.191Z,67.47
2019-03-06T20:24:52.671Z,68.35
2019-03-06T20:27:21.056Z,67.95
2019-03-06T20:29:49.445Z,67.21
2019-03-06T20:32:18.238Z,64.55
2019-03-06T20:34:46.635Z,66.92
2019-03-06T20:37:15.031Z,67.30
2019-03-06T20:39:43.508Z,66.37
2019-03-06T20:42:11.904Z,66.33
2019-03-06T20:44:40.296Z,66.27
2019-03-06T20:47:09.234Z,67.39
2019-03-06T20:49:37.621Z,67.76
2019-03-06T20:52:06.089Z,65.97
2019-03-06T20:54:34.506Z,65.69
2019-03-06T20:57:03.264Z,69.02
2019-03-06T20:59:31.660Z,69.78
2019-03-06T21:02:00.071Z,69.69
2019-03-06T21:04:28.467Z,69.79
2019-03-06T21:06:57.181Z,68.54
2019-03-06T21:09:27.365Z,67.20
2019-03-06T21:11:55.759Z,68.41
2019-03-06T21:14:24.465Z,76.13
2019-03-06T21:16:53.165Z,68.87
2019-03-06T21:19:21.553Z,70.21
2019-03-06T21:21:49.948Z,72.01
2019-03-06T21:24:18.703Z,70.95
2019-03-06T21:26:47.096Z,68.37
2019-03-06T21:29:15.488Z,65.64
2019-03-06T21:31:44.152Z,63.87
2019-03-06T21:34:12.597Z,64.39
2019-03-06T21:36:41.230Z,63.48
2019-03-06T21:39:28.985Z,62.30
2019-03-06T21:41:57.376Z,61.50
2019-03-06T21:44:25.765Z,66.17
2019-03-06T21:46:54.182Z,63.25
2019-03-06T21:49:22.570Z,60.62
2019-03-06T21:51:51.023Z,64.81
2019-03-06T21:54:21.150Z,65.93
2019-03-06T21:56:49.852Z,68.32
2019-03-06T21:59:18.253Z,67.04
2019-03-06T22:01:47.023Z,65.36
2019-03-06T22:04:15.419Z,69.04
2019-03-06T22:06:43.817Z,66.88
2019-03-06T22:09:52.822Z,68.67
2019-03-06T22:12:21.497Z,69.84
2019-03-06T22:14:49.908Z,68.99
2019-03-06T22:17:18.413Z,68.91
2019-03-06T22:19:47.040Z,71.40
2019-03-06T22:22:15.849Z,69.89
2019-03-06T22:24:44.513Z,70.17
2019-03-06T22:27:13.198Z,73.11
2019-03-06T22:29:41.882Z,74.77
2019-03-06T22:32:11.994Z,74.71
2019-03-06T22:34:40.641Z,76.81
2019-03-06T22:37:09.374Z,76.95
2019-03-06T22:39:38.065Z,79.89
2019-03-06T22:42:06.752Z,83.76
2019-03-06T22:44:35.432Z,80.76
2019-03-06T22:47:23.473Z,79.74
2019-03-06T22:49:52.171Z,79.91
2019-03-06T22:52:20.849Z,72.89
2019-03-06T22:54:49.245Z,71.94
2019-03-06T22:57:17.907Z,73.40
2019-03-06T22:59:46.306Z,71.29
2019-03-06T23:02:14.896Z,71.77
2019-03-06T23:04:43.573Z,72.33
2019-03-06T23:07:12.031Z,74.96
2019-03-06T23:09:40.723Z,71.92
2019-03-06T23:12:09.196Z,72.90
2019-03-06T23:14:37.893Z,74.11
2019-03-06T23:17:06.399Z,76.26
2019-03-06T23:19:35.055Z,78.68
2019-03-06T23:22:03.755Z,82.51
2019-03-06T23:24:32.148Z,79.33
2019-03-06T23:27:00.814Z,77.37
2019-03-06T23:29:29.494Z,75.48
2019-03-06T23:31:58.183Z,74.23
2019-03-06T23:34:26.565Z,76.25
2019-03-06T23:36:54.963Z,75.05
2019-03-06T23:39:23.669Z,76.40
2019-03-06T23:41:52.035Z,79.18
2019-03-06T23:44:20.429Z,81.91
2019-03-06T23:46:48.809Z,82.41
2019-03-06T23:49:17.548Z,83.70
2019-03-06T23:54:35.039Z,82.71
2019-03-06T23:57:03.424Z,82.68
2019-03-06T23:59:32.165Z,84.46
